Time;durP1;ratioP1;P1;durP2;ratioP2;P2;SDS_P1;SDS_P2;PMS_P1;PMS_P2;Temp;Humidity;BMP_temperature;BMP_pressure;BME280_temperature;BME280_humidity;BME280_pressure;Samples;Min_cycle;Max_cycle;Signal;HPM_P1;HPM_P2
2023/08/06 00:00:17;;;;;;;7.03;3.60;;;11.40;99.90;;;;;;4973296;28;20102;-77
2023/08/06 00:02:43;;;;;;;6.75;3.38;;;11.40;99.90;;;;;;4972851;28;20026;-77
2023/08/06 00:05:09;;;;;;;5.47;3.28;;;11.40;99.90;;;;;;4973100;28;20404;-78
2023/08/06 00:07:34;;;;;;;6.90;3.60;;;11.40;99.90;;;;;;4973601;28;20033;-77
2023/08/06 00:10:00;;;;;;;5.55;3.67;;;11.40;99.90;;;;;;4972885;28;20035;-78
2023/08/06 00:12:26;;;;;;;4.47;3.30;;;11.30;99.90;;;;;;4973098;28;20022;-77
2023/08/06 00:14:52;;;;;;;6.57;3.92;;;11.30;99.90;;;;;;4972931;28;20109;-78
2023/08/06 00:17:18;;;;;;;11.25;3.85;;;11.30;99.90;;;;;;4971925;28;20118;-77
2023/08/06 00:19:44;;;;;;;7.93;4.30;;;11.30;99.90;;;;;;4972758;28;20114;-78
2023/08/06 00:22:10;;;;;;;5.75;3.28;;;11.40;99.90;;;;;;4971988;28;20042;-78
2023/08/06 00:24:36;;;;;;;7.25;4.55;;;11.30;99.90;;;;;;4973290;28;20026;-78
2023/08/06 00:27:02;;;;;;;6.55;4.10;;;11.20;99.90;;;;;;4972271;28;20066;-77
2023/08/06 00:29:28;;;;;;;8.40;4.13;;;11.20;99.90;;;;;;4972664;28;20031;-77
2023/08/06 00:31:53;;;;;;;7.45;3.67;;;11.20;99.90;;;;;;4971938;28;20549;-79
2023/08/06 00:34:19;;;;;;;6.88;3.85;;;11.10;99.90;;;;;;4972374;28;20039;-78
2023/08/06 00:36:45;;;;;;;6.72;3.63;;;11.10;99.90;;;;;;4972629;28;20113;-78
2023/08/06 00:39:11;;;;;;;8.35;4.30;;;11.10;99.90;;;;;;4970763;28;20471;-78
2023/08/06 00:41:36;;;;;;;9.48;4.88;;;11.10;99.90;;;;;;4973007;28;20045;-78
2023/08/06 00:44:03;;;;;;;11.38;4.93;;;11.00;99.90;;;;;;4971818;28;20114;-78
2023/08/06 00:46:29;;;;;;;10.55;4.78;;;11.00;99.90;;;;;;4972195;28;20154;-78
2023/08/06 00:48:56;;;;;;;9.65;4.78;;;11.00;99.90;;;;;;4971923;28;20074;-79
2023/08/06 00:51:22;;;;;;;5.97;4.13;;;10.90;99.90;;;;;;4972426;28;20035;-78
2023/08/06 00:53:50;;;;;;;7.38;4.30;;;10.90;99.90;;;;;;4972438;28;20039;-78
2023/08/06 00:56:15;;;;;;;12.38;4.97;;;10.90;99.90;;;;;;4971652;28;20564;-78
2023/08/06 00:58:42;;;;;;;8.93;4.95;;;10.90;99.90;;;;;;4970898;28;20074;-77
2023/08/06 01:01:08;;;;;;;7.78;4.57;;;10.90;99.90;;;;;;4971640;28;20061;-78
2023/08/06 01:03:33;;;;;;;12.25;5.30;;;10.90;99.90;;;;;;4972324;28;20386;-78
2023/08/06 01:06:00;;;;;;;8.68;4.07;;;10.90;99.90;;;;;;4972497;28;20030;-79
2023/08/06 01:08:56;;;;;;;8.18;4.30;;;10.80;99.90;;;;;;4972556;28;20479;-78
2023/08/06 01:11:48;;;;;;;9.48;4.35;;;10.80;99.90;;;;;;4972235;28;20042;-78
2023/08/06 01:14:30;;;;;;;6.07;4.28;;;10.80;99.90;;;;;;4971707;28;20045;-78
2023/08/06 01:16:58;;;;;;;8.57;4.30;;;10.80;99.90;;;;;;4971902;28;20030;-78
2023/08/06 01:19:24;;;;;;;11.73;4.53;;;10.80;99.90;;;;;;4971963;28;20062;-78
2023/08/06 01:21:49;;;;;;;11.75;4.50;;;10.80;99.90;;;;;;4971460;28;20147;-78
2023/08/06 01:24:15;;;;;;;9.18;4.25;;;10.70;99.90;;;;;;4969736;28;20101;-78
2023/08/06 01:27:09;;;;;;;7.80;4.50;;;10.70;99.90;;;;;;4972169;28;20027;-78
2023/08/06 01:29:45;;;;;;;9.70;4.32;;;10.70;99.90;;;;;;4971285;28;20046;-78
2023/08/06 01:32:14;;;;;;;11.88;4.93;;;10.70;99.90;;;;;;4971054;28;20042;-78
2023/08/06 01:34:43;;;;;;;9.02;4.45;;;10.70;99.90;;;;;;4971320;28;20031;-78
2023/08/06 01:37:09;;;;;;;9.25;4.35;;;10.70;99.90;;;;;;4971166;28;20073;-78
2023/08/06 01:39:35;;;;;;;10.05;5.32;;;10.70;99.90;;;;;;4971655;28;20461;-78
2023/08/06 01:42:01;;;;;;;10.10;4.40;;;10.60;99.90;;;;;;4971278;28;20035;-78
2023/08/06 01:44:27;;;;;;;8.77;3.85;;;10.60;99.90;;;;;;4971767;28;20023;-78
2023/08/06 01:46:52;;;;;;;5.95;3.80;;;10.60;99.90;;;;;;4954055;28;20356;-78
2023/08/06 01:49:18;;;;;;;11.85;4.70;;;10.70;99.90;;;;;;4970774;28;20607;-78
2023/08/06 01:51:44;;;;;;;8.50;4.43;;;10.60;99.90;;;;;;4971497;28;20034;-78
2023/08/06 01:54:09;;;;;;;7.35;4.20;;;10.60;99.90;;;;;;4971064;28;20042;-78
2023/08/06 01:56:35;;;;;;;9.30;4.38;;;10.60;99.90;;;;;;4971653;28;20446;-78
2023/08/06 01:59:01;;;;;;;9.00;4.53;;;10.60;99.90;;;;;;4969702;28;20475;-79
2023/08/06 02:01:26;;;;;;;7.85;4.90;;;10.50;99.90;;;;;;4971610;28;20121;-78
2023/08/06 02:03:52;;;;;;;8.88;4.60;;;10.50;99.90;;;;;;4971641;28;20097;-78
2023/08/06 02:06:18;;;;;;;9.35;4.60;;;10.50;99.90;;;;;;4971426;28;20030;-78
2023/08/06 02:08:43;;;;;;;9.02;4.35;;;10.50;99.90;;;;;;4970954;28;20050;-78
2023/08/06 02:11:09;;;;;;;7.80;4.57;;;10.50;99.90;;;;;;4970901;28;20035;-78
2023/08/06 02:13:35;;;;;;;6.07;4.00;;;10.50;99.90;;;;;;4971808;28;20035;-78
2023/08/06 02:16:00;;;;;;;10.35;4.28;;;10.50;99.90;;;;;;4971204;28;20047;-79
2023/08/06 02:18:26;;;;;;;10.18;4.70;;;10.50;99.90;;;;;;4970884;28;20417;-78
2023/08/06 02:20:59;;;;;;;10.68;4.43;;;10.50;99.90;;;;;;4971330;28;20069;-78
2023/08/06 02:23:25;;;;;;;;;;;10.50;99.90;;;;;;4971207;28;20023;-78
2023/08/06 02:26:03;;;;;;;9.60;4.60;;;10.50;99.90;;;;;;4971537;28;19912;-78
2023/08/06 02:28:32;;;;;;;7.50;4.07;;;10.40;99.90;;;;;;4971150;28;20388;-78
2023/08/06 02:30:58;;;;;;;8.38;4.50;;;10.40;99.90;;;;;;4971365;28;20393;-78
2023/08/06 02:33:24;;;;;;;8.90;4.72;;;10.40;99.90;;;;;;4970776;28;20026;-78
2023/08/06 02:35:49;;;;;;;6.07;4.07;;;10.40;99.90;;;;;;4971399;28;20092;-78
2023/08/06 02:38:15;;;;;;;11.30;4.60;;;10.40;99.90;;;;;;4969146;28;20477;-78
2023/08/06 02:40:45;;;;;;;9.50;4.85;;;10.40;99.90;;;;;;4974042;28;20580;-78
2023/08/06 02:43:11;;;;;;;12.05;4.57;;;10.40;99.90;;;;;;4974098;28;20491;-78
2023/08/06 02:45:36;;;;;;;8.05;4.78;;;10.40;99.90;;;;;;4974617;28;20035;-78
2023/08/06 02:48:02;;;;;;;8.18;4.60;;;10.40;99.90;;;;;;4974287;28;20038;-78
2023/08/06 02:50:28;;;;;;;13.18;4.53;;;10.40;99.90;;;;;;4974002;28;20027;-78
2023/08/06 02:52:54;;;;;;;10.60;4.72;;;10.40;99.90;;;;;;4974337;28;20484;-77
2023/08/06 02:55:20;;;;;;;8.85;4.13;;;10.40;99.90;;;;;;4972793;28;20035;-78
2023/08/06 02:57:45;;;;;;;13.23;4.65;;;10.40;99.90;;;;;;4974547;28;20031;-78
2023/08/06 03:00:11;;;;;;;9.93;4.82;;;10.40;99.90;;;;;;4973667;28;20050;-77
2023/08/06 03:02:37;;;;;;;12.10;6.00;;;10.50;99.90;;;;;;4974888;28;20058;-77
2023/08/06 03:05:03;;;;;;;9.38;4.82;;;10.50;99.90;;;;;;4974162;28;20113;-78
2023/08/06 03:07:29;;;;;;;11.32;5.07;;;10.60;99.90;;;;;;4974417;28;20031;-76
2023/08/06 03:09:55;;;;;;;12.15;5.25;;;10.60;99.90;;;;;;4973719;28;20030;-78
2023/08/06 03:12:21;;;;;;;14.27;5.13;;;10.70;99.90;;;;;;4973488;28;20073;-78
2023/08/06 03:14:46;;;;;;;11.48;5.07;;;10.80;99.90;;;;;;4974324;28;20031;-78
2023/08/06 03:17:12;;;;;;;14.27;5.57;;;10.80;99.90;;;;;;4973374;28;20042;-78
2023/08/06 03:19:38;;;;;;;14.40;5.25;;;10.90;99.90;;;;;;4974144;28;20038;-78
2023/08/06 03:22:04;;;;;;;9.73;5.38;;;10.80;99.90;;;;;;4972770;28;20034;-77
2023/08/06 03:24:29;;;;;;;13.45;4.55;;;10.90;99.90;;;;;;4973172;28;20384;-76
2023/08/06 03:26:55;;;;;;;12.70;5.20;;;10.80;99.90;;;;;;4973871;28;20121;-76
2023/08/06 03:29:22;;;;;;;15.20;5.25;;;10.90;99.90;;;;;;4972162;28;20130;-78
2023/08/06 03:31:47;;;;;;;10.10;5.22;;;10.80;99.90;;;;;;4974095;28;20137;-78
2023/08/06 03:34:13;;;;;;;12.82;5.15;;;10.80;99.90;;;;;;4973362;28;20476;-77
2023/08/06 03:36:39;;;;;;;11.32;5.10;;;10.80;99.90;;;;;;4972163;28;20069;-77
2023/08/06 03:39:04;;;;;;;8.18;4.53;;;10.90;99.90;;;;;;4972229;28;20086;-78
2023/08/06 03:41:30;;;;;;;9.68;4.60;;;11.00;99.90;;;;;;4972979;28;20065;-77
2023/08/06 03:43:56;;;;;;;8.68;4.60;;;11.00;99.90;;;;;;4973497;28;20101;-79
2023/08/06 03:46:21;;;;;;;13.68;5.60;;;11.00;99.90;;;;;;4972934;28;20519;-77
2023/08/06 03:48:47;;;;;;;11.23;5.28;;;11.00;99.90;;;;;;4973376;28;20085;-77
2023/08/06 03:51:13;;;;;;;11.57;5.32;;;11.00;99.90;;;;;;4971678;28;20137;-77
2023/08/06 03:53:39;;;;;;;8.95;4.97;;;11.00;99.90;;;;;;4973379;28;20053;-77
2023/08/06 03:56:04;;;;;;;10.40;4.60;;;11.00;99.90;;;;;;4973175;28;20023;-77
2023/08/06 03:58:30;;;;;;;12.13;4.82;;;11.00;99.90;;;;;;4972989;28;20030;-77
2023/08/06 04:01:00;;;;;;;9.20;4.78;;;11.00;99.90;;;;;;4973072;28;20413;-77
2023/08/06 04:03:26;;;;;;;9.23;4.60;;;11.00;99.90;;;;;;4972774;28;20087;-79
2023/08/06 04:05:52;;;;;;;9.25;4.57;;;11.00;99.90;;;;;;4971955;28;20030;-77
2023/08/06 04:08:18;;;;;;;10.80;4.65;;;11.00;99.90;;;;;;4972820;28;20030;-78
2023/08/06 04:10:43;;;;;;;11.48;4.47;;;11.00;99.90;;;;;;4971615;28;20022;-77
2023/08/06 04:13:09;;;;;;;8.45;5.00;;;10.90;99.90;;;;;;4972723;28;20046;-80
2023/08/06 04:15:35;;;;;;;8.80;4.90;;;10.90;99.90;;;;;;4973015;28;20023;-77
2023/08/06 04:18:00;;;;;;;9.25;4.75;;;10.90;99.90;;;;;;4973051;28;20113;-77
2023/08/06 04:20:26;;;;;;;10.52;4.85;;;10.90;99.90;;;;;;4972509;28;20035;-77
2023/08/06 04:22:54;;;;;;;10.60;4.88;;;10.90;99.90;;;;;;4972967;28;20058;-77
2023/08/06 04:25:20;;;;;;;12.93;5.05;;;10.90;99.90;;;;;;4972107;28;20105;-78
2023/08/06 04:27:49;;;;;;;9.57;4.78;;;10.80;99.90;;;;;;4972514;28;20366;-78
2023/08/06 04:30:15;;;;;;;9.40;4.18;;;10.90;99.90;;;;;;4972255;28;20081;-78
2023/08/06 04:32:41;;;;;;;11.13;4.88;;;10.80;99.90;;;;;;4972479;28;20038;-79
2023/08/06 04:35:07;;;;;;;10.95;5.13;;;10.80;99.90;;;;;;4972396;28;20433;-77
2023/08/06 04:37:33;;;;;;;12.23;5.28;;;10.90;99.90;;;;;;4972174;28;20129;-76
2023/08/06 04:39:58;;;;;;;11.10;5.03;;;10.90;99.90;;;;;;4972946;28;20030;-77
2023/08/06 04:42:24;;;;;;;8.93;4.82;;;10.80;99.90;;;;;;4972247;28;20108;-77
2023/08/06 04:44:50;;;;;;;7.40;4.63;;;10.80;99.90;;;;;;4972674;28;20030;-77
2023/08/06 04:47:16;;;;;;;9.80;4.20;;;10.80;99.90;;;;;;4972028;28;20437;-77
2023/08/06 04:49:41;;;;;;;8.30;4.47;;;10.70;99.90;;;;;;4972760;28;20464;-77
2023/08/06 04:52:07;;;;;;;10.32;5.00;;;10.70;99.90;;;;;;4972323;28;20035;-78
2023/08/06 04:54:34;;;;;;;9.10;4.50;;;10.70;99.90;;;;;;4971879;28;20476;-77
2023/08/06 04:56:59;;;;;;;9.95;5.05;;;10.70;99.90;;;;;;4972365;28;20033;-78
2023/08/06 04:59:25;;;;;;;13.40;4.50;;;10.70;99.90;;;;;;4971894;28;20443;-77
2023/08/06 05:01:51;;;;;;;11.23;5.00;;;10.70;99.90;;;;;;4972000;28;20057;-77
2023/08/06 05:04:16;;;;;;;10.13;4.88;;;10.70;99.90;;;;;;4970288;28;20031;-77
2023/08/06 05:06:42;;;;;;;13.77;5.35;;;10.70;99.90;;;;;;4972328;28;20377;-77
2023/08/06 05:09:08;;;;;;;11.35;4.93;;;10.80;99.90;;;;;;4972364;28;20185;-76
2023/08/06 05:11:33;;;;;;;11.73;5.25;;;10.80;99.90;;;;;;4971560;28;20046;-76
2023/08/06 05:13:59;;;;;;;9.07;4.55;;;10.80;99.90;;;;;;4972187;28;20035;-77
2023/08/06 05:16:25;;;;;;;11.75;5.47;;;10.80;99.90;;;;;;4971502;28;20377;-77
2023/08/06 05:18:50;;;;;;;10.85;5.40;;;10.80;99.90;;;;;;4972251;28;20035;-77
2023/08/06 05:21:16;;;;;;;14.63;5.32;;;10.80;99.90;;;;;;4971432;28;20034;-77
2023/08/06 05:23:42;;;;;;;9.93;4.90;;;10.80;99.90;;;;;;4972148;28;20026;-77
2023/08/06 05:26:08;;;;;;;12.32;5.00;;;10.90;99.90;;;;;;4971758;28;20469;-76
2023/08/06 05:28:34;;;;;;;11.60;5.60;;;11.00;99.90;;;;;;4971606;28;20042;-77
2023/08/06 05:31:04;;;;;;;9.88;5.00;;;11.00;99.90;;;;;;4972080;28;20034;-77
2023/08/06 05:33:30;;;;;;;12.00;5.13;;;11.10;99.90;;;;;;4971373;28;20122;-77
2023/08/06 05:35:56;;;;;;;12.93;5.25;;;11.10;99.90;;;;;;4980898;28;20149;-77
2023/08/06 05:38:22;;;;;;;10.07;5.43;;;11.30;99.90;;;;;;4990820;28;20058;-77
2023/08/06 05:40:48;;;;;;;13.00;5.32;;;11.30;99.90;;;;;;4991613;28;20030;-77
2023/08/06 05:43:14;;;;;;;11.10;5.03;;;11.40;99.90;;;;;;4990986;28;20033;-78
2023/08/06 05:45:45;;;;;;;11.15;5.10;;;11.50;99.90;;;;;;4990945;28;20109;-77
2023/08/06 05:48:10;;;;;;;8.32;4.70;;;11.70;99.90;;;;;;4991418;28;20034;-77
2023/08/06 05:50:36;;;;;;;9.30;5.05;;;11.90;99.90;;;;;;4990728;28;20567;-77
2023/08/06 05:53:02;;;;;;;10.38;4.70;;;12.00;99.90;;;;;;4990991;28;20030;-76
2023/08/06 05:55:27;;;;;;;6.13;3.67;;;12.00;99.90;;;;;;4990609;28;20038;-76
2023/08/06 05:57:53;;;;;;;7.90;4.35;;;12.30;99.90;;;;;;4990063;28;20384;-78
2023/08/06 06:00:19;;;;;;;8.60;4.50;;;12.40;99.90;;;;;;4991010;28;20022;-78
2023/08/06 06:02:45;;;;;;;8.20;3.80;;;12.60;99.90;;;;;;4991449;28;20117;-77
2023/08/06 06:05:11;;;;;;;6.57;3.50;;;12.70;99.90;;;;;;4991443;28;20023;-76
2023/08/06 06:07:37;;;;;;;10.10;3.38;;;12.80;99.90;;;;;;4991558;28;20542;-79
2023/08/06 06:10:03;;;;;;;10.05;3.38;;;13.00;99.90;;;;;;4989849;28;20422;-79
2023/08/06 06:12:28;;;;;;;8.57;3.72;;;13.00;99.90;;;;;;4972719;28;20023;-79
2023/08/06 06:14:54;;;;;;;6.13;3.42;;;13.20;99.90;;;;;;4990677;28;20367;-78
2023/08/06 06:17:20;;;;;;;5.05;3.45;;;13.30;99.90;;;;;;4994417;28;20026;-79
2023/08/06 06:19:46;;;;;;;8.00;3.20;;;13.50;99.90;;;;;;4994134;28;20096;-79
2023/08/06 06:22:12;;;;;;;6.40;3.22;;;13.60;99.90;;;;;;4994602;28;20030;-78
2023/08/06 06:24:38;;;;;;;8.27;3.10;;;13.60;99.90;;;;;;4993979;28;20030;-78
2023/08/06 06:27:04;;;;;;;6.18;3.25;;;13.70;99.90;;;;;;4994638;28;20384;-78
2023/08/06 06:29:30;;;;;;;8.15;3.60;;;13.70;99.90;;;;;;4991969;28;20033;-78
2023/08/06 06:31:55;;;;;;;5.95;3.17;;;13.70;99.90;;;;;;4994482;28;20035;-78
2023/08/06 06:34:21;;;;;;;10.50;3.10;;;13.70;99.90;;;;;;4994301;28;20034;-79
2023/08/06 06:36:47;;;;;;;5.38;2.85;;;13.70;99.90;;;;;;4993725;28;20116;-78
2023/08/06 06:39:13;;;;;;;8.43;3.20;;;13.70;99.90;;;;;;4994449;28;20062;-78
2023/08/06 06:41:39;;;;;;;7.15;3.65;;;13.70;99.90;;;;;;4993476;28;20498;-78
2023/08/06 06:44:05;;;;;;;8.70;4.80;;;13.80;99.90;;;;;;4994326;28;20028;-78
2023/08/06 06:46:31;;;;;;;8.02;3.90;;;13.80;99.90;;;;;;4993788;28;20026;-78
2023/08/06 06:48:57;;;;;;;7.47;3.90;;;13.70;99.90;;;;;;4992249;28;20033;-77
2023/08/06 06:51:22;;;;;;;10.38;3.67;;;13.70;99.90;;;;;;4993242;28;20030;-77
2023/08/06 06:53:48;;;;;;;5.70;3.65;;;13.70;99.90;;;;;;4993250;28;20029;-77
2023/08/06 06:56:14;;;;;;;5.80;3.63;;;13.70;99.90;;;;;;4993953;28;20037;-77
2023/08/06 06:58:40;;;;;;;7.82;3.85;;;13.80;99.90;;;;;;4991756;28;20127;-76
2023/08/06 07:01:06;;;;;;;9.52;3.90;;;13.70;99.90;;;;;;4993583;28;20026;-79
2023/08/06 07:03:32;;;;;;;6.65;3.60;;;13.80;99.90;;;;;;4991726;28;20033;-76
2023/08/06 07:05:59;;;;;;;6.28;3.70;;;13.80;99.90;;;;;;4993666;28;20380;-76
2023/08/06 07:08:25;;;;;;;11.88;3.92;;;13.80;99.90;;;;;;4993021;28;20030;-77
2023/08/06 07:10:59;;;;;;;7.40;3.53;;;13.90;99.90;;;;;;4993868;28;20345;-78
2023/08/06 07:13:24;;;;;;;11.73;4.30;;;13.80;99.90;;;;;;4991795;28;20034;-76
2023/08/06 07:15:50;;;;;;;9.40;3.85;;;13.80;99.90;;;;;;4993809;28;20034;-76
2023/08/06 07:18:16;;;;;;;8.93;4.03;;;13.90;99.90;;;;;;4993558;28;20154;-76
2023/08/06 07:20:41;;;;;;;7.60;3.67;;;14.00;99.90;;;;;;4992828;28;20054;-76
2023/08/06 07:23:07;;;;;;;7.05;3.40;;;14.00;99.90;;;;;;4993561;28;20026;-76
2023/08/06 07:25:33;;;;;;;8.13;3.08;;;13.90;99.90;;;;;;4991877;28;20388;-76
2023/08/06 07:27:59;;;;;;;9.80;3.65;;;13.90;99.90;;;;;;4993308;28;20026;-77
2023/08/06 07:30:24;;;;;;;3.95;2.75;;;14.20;99.90;;;;;;4993151;28;20031;-78
2023/08/06 07:32:50;;;;;;;6.88;3.00;;;14.30;99.90;;;;;;4993353;28;20030;-77
2023/08/06 07:35:16;;;;;;;5.15;2.60;;;14.40;99.90;;;;;;4993598;28;20034;-77
2023/08/06 07:37:41;;;;;;;6.03;2.90;;;14.50;99.90;;;;;;4991938;28;20659;-77
2023/08/06 07:40:08;;;;;;;7.78;3.22;;;14.70;99.90;;;;;;4991150;28;20160;-77
2023/08/06 07:42:34;;;;;;;4.60;2.75;;;14.80;99.90;;;;;;4991820;28;20038;-77
2023/08/06 07:45:00;;;;;;;4.88;2.58;;;15.00;99.90;;;;;;4992339;28;20034;-77
2023/08/06 07:47:25;;;;;;;7.07;2.53;;;15.00;99.90;;;;;;4991563;28;20022;-78
2023/08/06 07:49:51;;;;;;;6.00;2.45;;;15.20;99.90;;;;;;4992288;28;20131;-78
2023/08/06 07:52:17;;;;;;;8.90;3.17;;;15.40;99.90;;;;;;4992038;28;20042;-77
2023/08/06 07:54:43;;;;;;;6.05;2.55;;;15.60;99.90;;;;;;4991392;28;20038;-77
2023/08/06 07:57:08;;;;;;;6.70;3.00;;;15.60;99.90;;;;;;4992056;28;20151;-77
2023/08/06 07:59:34;;;;;;;5.43;3.20;;;15.50;99.90;;;;;;4990896;28;20030;-78
2023/08/06 08:02:01;;;;;;;4.78;2.47;;;15.50;99.90;;;;;;4992057;28;20034;-78
2023/08/06 08:04:26;;;;;;;8.20;2.88;;;15.50;99.90;;;;;;4991110;28;20062;-78
2023/08/06 08:06:52;;;;;;;6.13;2.80;;;15.50;99.90;;;;;;4991846;28;20190;-78
2023/08/06 08:09:18;;;;;;;9.10;3.00;;;15.50;99.90;;;;;;4991205;28;20113;-78
2023/08/06 08:11:44;;;;;;;6.75;2.97;;;15.50;99.90;;;;;;4994243;28;20062;-78
2023/08/06 08:14:10;;;;;;;7.07;3.03;;;15.50;99.90;;;;;;4989972;28;20383;-78
2023/08/06 08:16:35;;;;;;;7.18;2.90;;;15.60;99.90;;;;;;4990776;28;20039;-78
2023/08/06 08:19:03;;;;;;;5.38;3.17;;;15.70;99.90;;;;;;4990240;28;20030;-77
2023/08/06 08:21:28;;;;;;;5.88;2.97;;;15.80;99.90;;;;;;4990882;28;20116;-78
2023/08/06 08:23:54;;;;;;;6.57;3.00;;;15.80;99.90;;;;;;4991062;28;20058;-78
2023/08/06 08:26:20;;;;;;;6.65;3.28;;;15.80;99.90;;;;;;4991277;28;20022;-78
2023/08/06 08:28:45;;;;;;;7.18;3.55;;;15.90;99.90;;;;;;4990876;28;20049;-77
2023/08/06 08:31:12;;;;;;;4.65;2.88;;;16.20;99.90;;;;;;4991283;28;20046;-78
2023/08/06 08:33:40;;;;;;;6.88;2.72;;;16.30;99.90;;;;;;4990637;28;20066;-77
2023/08/06 08:36:06;;;;;;;6.75;2.80;;;16.50;99.90;;;;;;4991086;28;20027;-77
2023/08/06 08:38:31;;;;;;;4.68;2.58;;;16.60;99.90;;;;;;4942734;28;1371372;-77
2023/08/06 08:40:57;;;;;;;6.45;2.63;;;16.60;99.90;;;;;;4992121;28;20057;-77
2023/08/06 08:43:24;;;;;;;8.80;2.92;;;16.50;99.90;;;;;;4991636;28;20451;-78
2023/08/06 08:45:58;;;;;;;5.15;2.60;;;16.60;99.90;;;;;;4990922;28;20041;-77
2023/08/06 08:48:26;;;;;;;4.15;2.22;;;16.50;99.90;;;;;;4991621;28;20460;-78
2023/08/06 08:50:52;;;;;;;8.18;2.55;;;16.60;99.90;;;;;;4991693;28;20107;-77
2023/08/06 08:53:18;;;;;;;7.03;2.97;;;16.70;99.90;;;;;;4992265;28;20126;-77
2023/08/06 08:55:47;;;;;;;4.05;2.40;;;16.80;99.90;;;;;;4991467;28;20126;-76
2023/08/06 08:58:14;;;;;;;8.02;2.85;;;16.90;99.90;;;;;;4991674;28;20029;-77
2023/08/06 09:00:42;;;;;;;6.10;2.42;;;17.00;99.90;;;;;;4991420;28;20146;-75
2023/08/06 09:03:08;;;;;;;4.28;2.40;;;17.10;99.90;;;;;;4991551;28;20096;-77
2023/08/06 09:05:34;;;;;;;5.45;2.85;;;17.10;99.90;;;;;;4991094;28;20030;-75
2023/08/06 09:08:04;;;;;;;5.55;2.50;;;17.30;99.90;;;;;;4991649;28;20376;-75
2023/08/06 09:10:30;;;;;;;5.32;2.33;;;17.40;99.90;;;;;;4990903;28;20062;-75
2023/08/06 09:12:57;;;;;;;7.50;2.50;;;17.30;99.90;;;;;;4991424;28;20034;-75
2023/08/06 09:15:27;;;;;;;5.65;2.80;;;17.10;99.90;;;;;;4991461;28;20034;-75
2023/08/06 09:17:56;;;;;;;10.20;2.58;;;16.90;99.90;;;;;;4990845;28;20471;-75
2023/08/06 09:20:21;;;;;;;3.50;2.30;;;16.70;99.90;;;;;;4991185;28;20030;-75
2023/08/06 09:22:48;;;;;;;7.55;2.45;;;16.50;99.90;;;;;;4990876;28;20033;-76
2023/08/06 09:25:25;;;;;;;7.15;2.90;;;16.40;99.90;;;;;;4991034;28;20049;-75
2023/08/06 09:27:51;;;;;;;5.15;2.42;;;16.40;99.90;;;;;;4990582;28;20041;-75
2023/08/06 09:30:31;;;;;;;6.25;2.50;;;16.30;99.90;;;;;;4990868;28;20026;-75
2023/08/06 09:32:57;;;;;;;5.30;2.50;;;16.20;99.90;;;;;;4990582;28;20332;-75
2023/08/06 09:35:23;;;;;;;3.97;2.20;;;16.30;99.90;;;;;;4989833;28;20040;-75
2023/08/06 09:37:48;;;;;;;6.13;2.35;;;16.50;99.90;;;;;;4990559;28;20046;-75
2023/08/06 09:40:31;;;;;;;7.13;2.67;;;16.70;99.90;;;;;;4991173;28;20133;-75
2023/08/06 09:42:58;;;;;;;7.93;2.58;;;16.80;99.90;;;;;;4991213;28;20137;-75
2023/08/06 09:45:33;;;;;;;5.43;2.47;;;16.90;99.90;;;;;;4991308;28;20114;-76
2023/08/06 09:47:59;;;;;;;5.25;2.00;;;17.00;99.90;;;;;;4989705;28;20117;-77
2023/08/06 09:50:32;;;;;;;5.53;2.67;;;17.10;99.90;;;;;;4994867;28;20027;-77
2023/08/06 09:52:59;;;;;;;5.25;2.40;;;17.00;99.90;;;;;;4996539;28;20487;-77
2023/08/06 09:55:26;;;;;;;3.35;2.00;;;17.00;99.90;;;;;;4996168;28;20030;-76
2023/08/06 09:57:52;;;;;;;5.18;2.00;;;17.20;99.90;;;;;;4995607;28;20075;-77
2023/08/06 10:00:19;;;;;;;3.45;1.80;;;17.40;99.90;;;;;;4995366;28;20034;-76
2023/08/06 10:02:46;;;;;;;4.15;1.88;;;17.50;99.90;;;;;;4995367;28;20061;-76
2023/08/06 10:05:12;;;;;;;3.05;1.60;;;17.60;99.90;;;;;;4996232;28;20076;-77
2023/08/06 10:07:39;;;;;;;4.05;1.90;;;17.70;99.90;;;;;;4994489;28;20317;-77
2023/08/06 10:10:06;;;;;;;2.42;1.50;;;17.80;99.90;;;;;;4996398;28;20048;-76
2023/08/06 10:12:35;;;;;;;4.70;1.50;;;18.00;99.90;;;;;;4995844;28;20027;-79
2023/08/06 10:15:06;;;;;;;6.20;1.48;;;18.20;99.90;;;;;;4995624;28;20117;-77
2023/08/06 10:17:32;;;;;;;4.78;1.63;;;18.20;99.90;;;;;;4997142;28;20038;-79
2023/08/06 10:19:59;;;;;;;4.93;1.55;;;18.30;99.90;;;;;;4995408;28;20030;-77
2023/08/06 10:22:27;;;;;;;4.03;1.42;;;18.20;99.90;;;;;;4996019;28;20034;-76
2023/08/06 10:24:53;;;;;;;7.07;1.58;;;17.80;99.90;;;;;;4994994;28;20116;-77
2023/08/06 10:27:48;;;;;;;7.25;1.85;;;17.70;99.90;;;;;;4995207;28;20332;-76
2023/08/06 10:30:32;;;;;;;2.83;1.30;;;17.70;99.90;;;;;;4977717;28;20102;-76
2023/08/06 10:33:01;;;;;;;3.03;1.25;;;17.70;99.90;;;;;;4995178;28;20038;-76
2023/08/06 10:35:43;;;;;;;5.18;1.45;;;17.60;99.90;;;;;;4996480;28;20034;-77
2023/08/06 10:38:10;;;;;;;5.85;1.98;;;17.60;99.90;;;;;;4996309;28;20078;-77
2023/08/06 10:40:41;;;;;;;6.63;2.00;;;17.60;99.90;;;;;;4995605;28;20045;-78
2023/08/06 10:43:10;;;;;;;5.78;1.25;;;17.40;99.90;;;;;;4996215;28;20027;-77
2023/08/06 10:45:37;;;;;;;5.40;1.70;;;17.40;99.90;;;;;;4995470;28;20026;-77
2023/08/06 10:48:04;;;;;;;4.00;1.60;;;17.60;99.90;;;;;;4995774;28;20041;-78
2023/08/06 10:50:31;;;;;;;2.80;1.50;;;17.80;99.90;;;;;;4995373;28;20030;-78
2023/08/06 10:52:57;;;;;;;2.05;1.50;;;18.00;99.90;;;;;;4994699;28;20483;-77
2023/08/06 10:55:24;;;;;;;2.78;1.30;;;18.20;99.90;;;;;;4995025;28;20030;-76
2023/08/06 10:57:50;;;;;;;4.78;1.55;;;18.30;99.90;;;;;;4994747;28;20023;-76
2023/08/06 11:00:16;;;;;;;5.07;1.58;;;18.50;99.90;;;;;;4993384;28;20535;-77
2023/08/06 11:02:42;;;;;;;3.45;2.05;;;18.60;99.90;;;;;;4994131;28;20030;-76
2023/08/06 11:05:09;;;;;;;3.53;1.50;;;18.50;99.90;;;;;;4995300;28;20109;-77
2023/08/06 11:07:36;;;;;;;3.50;1.52;;;18.30;99.90;;;;;;4993482;28;20445;-78
2023/08/06 11:10:08;;;;;;;2.25;1.23;;;18.10;99.90;;;;;;4994736;28;20034;-76
2023/08/06 11:12:34;;;;;;;4.53;1.10;;;17.90;99.90;;;;;;4994693;28;20066;-79
2023/08/06 11:15:01;;;;;;;4.88;1.10;;;17.40;99.90;;;;;;4993665;28;20041;-80
2023/08/06 11:17:31;;;;;;;1.40;1.10;;;17.10;99.90;;;;;;4993768;28;20030;-79
2023/08/06 11:19:59;;;;;;;3.95;0.90;;;16.90;99.90;;;;;;4993945;28;20494;-77
2023/08/06 11:22:26;;;;;;;2.92;0.98;;;16.70;99.90;;;;;;4994763;28;20069;-77
2023/08/06 11:24:53;;;;;;;2.50;1.05;;;16.70;99.90;;;;;;4994238;28;20023;-76
2023/08/06 11:27:19;;;;;;;3.08;1.00;;;16.70;99.90;;;;;;4994837;28;20039;-76
2023/08/06 11:29:45;;;;;;;2.38;1.23;;;16.70;99.90;;;;;;4994056;28;20180;-76
2023/08/06 11:32:11;;;;;;;4.07;1.25;;;16.70;99.90;;;;;;4993872;28;20042;-76
2023/08/06 11:34:38;;;;;;;1.80;1.10;;;16.70;99.90;;;;;;4993760;28;20030;-76
2023/08/06 11:37:05;;;;;;;2.53;1.00;;;16.70;99.90;;;;;;4993873;28;20060;-77
2023/08/06 11:39:46;;;;;;;3.08;1.05;;;16.80;99.90;;;;;;4994354;28;20026;-75
2023/08/06 11:42:12;;;;;;;3.05;1.23;;;17.00;99.90;;;;;;4994235;28;20041;-75
2023/08/06 11:44:38;;;;;;;1.80;0.98;;;17.10;99.90;;;;;;4993678;28;20037;-78
2023/08/06 11:47:05;;;;;;;2.65;1.02;;;17.20;99.90;;;;;;4994324;28;20367;-76
2023/08/06 11:49:49;;;;;;;1.83;0.80;;;17.40;99.90;;;;;;4993995;28;20040;-76
2023/08/06 11:52:16;;;;;;;3.08;1.10;;;17.60;99.90;;;;;;4994097;28;20041;-76
2023/08/06 11:54:42;;;;;;;1.00;0.90;;;17.80;99.90;;;;;;4993096;28;20392;-76
2023/08/06 11:57:08;;;;;;;1.23;1.00;;;18.00;99.90;;;;;;4993825;28;20468;-76
2023/08/06 11:59:34;;;;;;;1.10;0.90;;;18.10;99.90;;;;;;4993922;28;20033;-76
2023/08/06 12:02:05;;;;;;;1.73;1.00;;;18.30;99.90;;;;;;4991873;28;20030;-75
2023/08/06 12:04:32;;;;;;;2.78;0.90;;;18.30;99.90;;;;;;4993890;28;20034;-75
2023/08/06 12:07:10;;;;;;;2.10;1.02;;;18.20;99.90;;;;;;4993310;28;20172;-76
2023/08/06 12:09:36;;;;;;;3.63;1.33;;;18.20;99.90;;;;;;4993779;28;20058;-75
2023/08/06 12:12:01;;;;;;;2.78;1.30;;;18.10;99.90;;;;;;4992107;28;20073;-76
2023/08/06 12:14:27;;;;;;;2.67;1.00;;;18.20;99.90;;;;;;4993389;28;20106;-75
2023/08/06 12:16:53;;;;;;;2.17;0.80;;;18.30;99.90;;;;;;4990885;28;20031;-77
2023/08/06 12:19:19;;;;;;;3.95;1.00;;;18.50;99.90;;;;;;4992088;28;20054;-75
2023/08/06 12:21:44;;;;;;;2.00;0.90;;;18.70;99.90;;;;;;4992804;28;20038;-78
2023/08/06 12:24:10;;;;;;;3.63;0.95;;;18.90;99.90;;;;;;4993134;28;20026;-76
2023/08/06 12:26:36;;;;;;;2.22;0.88;;;19.00;99.90;;;;;;4992993;28;20034;-77
2023/08/06 12:29:01;;;;;;;2.17;1.10;;;19.00;99.90;;;;;;4990890;28;20030;-77
2023/08/06 12:31:27;;;;;;;2.80;0.90;;;19.10;99.90;;;;;;4992765;28;20065;-78
2023/08/06 12:33:53;;;;;;;4.30;0.80;;;19.00;99.90;;;;;;4990921;28;20038;-76
2023/08/06 12:36:18;;;;;;;1.33;0.80;;;18.80;99.90;;;;;;4992961;28;20026;-76
2023/08/06 12:38:44;;;;;;;2.15;0.70;;;18.60;99.90;;;;;;4992782;28;20049;-76
2023/08/06 12:41:10;;;;;;;2.03;0.70;;;18.60;99.90;;;;;;4992799;28;20027;-75
2023/08/06 12:43:35;;;;;;;3.58;0.85;;;18.60;99.90;;;;;;4992148;28;20026;-75